Terminal Aerodrome Forecast
Issued by NWS

Home | Current Version | Previous Version | Text Only | Print | Product List | Glossary On
Versions: 1 2 3 4 5 6 7 8 9 10 11 12 13 14
000
FTUS45 KTFX 282300
TAFBZN
TAF
KBZN 282335Z 2900/2924 28022G32KT P6SM BKN100
     FM290300 28010KT P6SM BKN100
     FM290800 VRB05KT P6SM BKN250
     FM292200 27010KT P6SM BKN120=

USA.gov is the U.S. government's official web portal to all federal, state and local government web resources and services.